Time;durP1;ratioP1;P1;durP2;ratioP2;P2;SDS_P1;SDS_P2;PMS_P1;PMS_P2;Temp;Humidity;BMP_temperature;BMP_pressure;BME280_temperature;BME280_humidity;BME280_pressure;Samples;Min_cycle;Max_cycle;Signal;HPM_P1;HPM_P2
2020/12/27 00:00:50;;;;;;;1.50;0.60;;;;;;;5.32;87.44;100170.59;4952643;28;20681;-73
2020/12/27 00:03:16;;;;;;;1.73;0.80;;;;;;;5.36;87.33;100158.00;4968231;28;20034;-73
2020/12/27 00:05:44;;;;;;;1.20;0.80;;;;;;;5.31;87.46;100142.25;4968326;28;20112;-72
2020/12/27 00:08:09;;;;;;;3.58;0.93;;;;;;;5.32;87.83;100138.66;4968559;28;20030;-73
2020/12/27 00:10:34;;;;;;;1.15;0.88;;;;;;;5.30;87.47;100132.56;4967170;28;20636;-73
2020/12/27 00:13:00;;;;;;;1.77;0.70;;;;;;;5.34;87.24;100131.47;4967036;28;20045;-71
2020/12/27 00:15:26;;;;;;;1.95;0.88;;;;;;;5.27;87.60;100125.59;4950381;28;20043;-72
2020/12/27 00:17:51;;;;;;;1.00;0.75;;;;;;;5.31;87.55;100125.44;4967982;28;20093;-73
2020/12/27 00:20:16;;;;;;;1.27;0.52;;;;;;;5.26;87.21;100125.66;4969881;28;20193;-73
2020/12/27 00:22:42;;;;;;;1.25;0.70;;;;;;;5.23;87.63;100128.50;4951153;28;20042;-73
2020/12/27 00:25:07;;;;;;;2.22;0.77;;;;;;;5.18;87.50;100102.16;4970431;28;20043;-74
2020/12/27 00:27:33;;;;;;;1.08;0.70;;;;;;;5.19;87.05;100095.00;4965985;28;20065;-72
2020/12/27 00:29:58;;;;;;;1.90;0.70;;;;;;;5.21;87.80;100083.34;4970918;28;20073;-72
2020/12/27 00:32:28;;;;;;;1.63;0.70;;;;;;;5.19;87.26;100079.03;4949235;28;20089;-72
2020/12/27 00:34:53;;;;;;;1.05;0.70;;;;;;;5.11;87.00;100049.34;4968664;28;20066;-74
2020/12/27 00:37:19;;;;;;;0.70;0.47;;;;;;;5.24;86.91;100061.06;4967476;28;20447;-72
2020/12/27 00:39:45;;;;;;;3.88;0.80;;;;;;;5.15;86.89;100051.75;4952429;28;20431;-72
2020/12/27 00:42:10;;;;;;;1.58;0.80;;;;;;;5.08;87.38;100049.47;4966960;28;20038;-72
2020/12/27 00:44:36;;;;;;;0.88;0.60;;;;;;;5.14;86.56;100043.84;4970235;28;20034;-73
2020/12/27 00:47:01;;;;;;;2.58;0.80;;;;;;;5.09;86.78;100043.22;4965205;28;20031;-74
2020/12/27 00:49:27;;;;;;;0.90;0.60;;;;;;;5.11;86.12;100022.75;4970753;28;20050;-74
2020/12/27 00:51:52;;;;;;;1.10;0.77;;;;;;;5.04;87.46;100014.22;4967722;28;20070;-71
2020/12/27 00:54:18;;;;;;;0.77;0.70;;;;;;;5.08;86.60;100009.59;4950748;28;20085;-73
2020/12/27 00:56:49;;;;;;;2.15;0.75;;;;;;;5.06;86.65;99998.19;4963648;28;20043;-72
2020/12/27 00:59:15;;;;;;;0.73;0.57;;;;;;;4.99;86.93;99986.16;4966911;28;20108;-72
2020/12/27 01:01:42;;;;;;;1.08;0.60;;;;;;;5.04;86.41;99984.97;4949222;28;20042;-73
2020/12/27 01:04:26;;;;;;;1.38;0.80;;;;;;;5.06;85.99;99977.75;4966951;28;20046;-73
2020/12/27 01:06:56;;;;;;;1.75;0.60;;;;;;;4.91;86.95;99977.72;4950496;28;20415;-73
2020/12/27 01:09:21;;;;;;;0.85;0.50;;;;;;;5.00;86.89;99978.06;4951337;28;20030;-72
2020/12/27 01:11:47;;;;;;;1.13;0.70;;;;;;;4.99;86.73;99970.19;4934522;28;20050;-73
2020/12/27 01:14:14;;;;;;;1.30;0.70;;;;;;;4.99;86.72;99957.75;4951593;28;20026;-73
2020/12/27 01:16:49;;;;;;;0.73;0.63;;;;;;;5.06;85.80;99976.91;4949165;28;20498;-73
2020/12/27 01:19:17;;;;;;;1.58;0.80;;;;;;;5.12;86.35;99971.25;4950792;28;20035;-73
2020/12/27 01:21:42;;;;;;;1.58;0.63;;;;;;;5.11;86.22;99948.25;4949742;28;20069;-74
2020/12/27 01:24:11;;;;;;;1.05;0.60;;;;;;;5.05;86.47;99938.81;4953022;28;20038;-72
2020/12/27 01:26:40;;;;;;;1.27;0.70;;;;;;;5.00;86.53;99903.59;4966270;28;20034;-73
2020/12/27 01:29:06;;;;;;;0.80;0.70;;;;;;;5.01;86.97;99904.47;4950898;28;20402;-73
2020/12/27 01:31:35;;;;;;;0.57;0.50;;;;;;;5.04;86.77;99889.22;4950617;28;20038;-73
2020/12/27 01:34:09;;;;;;;1.75;0.70;;;;;;;5.06;86.57;99891.81;4951880;28;20537;-73
2020/12/27 01:36:38;;;;;;;1.27;0.90;;;;;;;5.05;86.82;99868.81;4965557;28;20603;-71
2020/12/27 01:39:11;;;;;;;1.33;0.93;;;;;;;5.06;86.72;99881.16;4951739;28;20030;-73
2020/12/27 01:41:37;;;;;;;1.20;0.80;;;;;;;5.14;86.33;99878.91;4952779;28;20649;-73
2020/12/27 01:44:10;;;;;;;1.17;0.95;;;;;;;5.11;87.12;99873.78;4958243;28;20043;-73
2020/12/27 01:46:42;;;;;;;0.82;0.63;;;;;;;5.13;87.05;99866.56;4945339;28;20682;-73
2020/12/27 01:49:13;;;;;;;1.30;0.80;;;;;;;5.15;86.49;99859.34;4954441;28;20034;-73
2020/12/27 01:51:39;;;;;;;1.60;0.77;;;;;;;5.18;85.67;99846.75;4967870;28;20065;-73
2020/12/27 01:54:06;;;;;;;2.22;1.00;;;;;;;5.23;85.72;99835.84;4954843;28;20483;-73
2020/12/27 01:56:55;;;;;;;1.00;0.70;;;;;;;5.23;85.47;99815.44;4969982;28;20038;-73
2020/12/27 01:59:30;;;;;;;0.98;0.80;;;;;;;5.25;85.36;99802.03;4969144;28;20038;-72
2020/12/27 02:02:02;;;;;;;1.17;0.70;;;;;;;5.21;85.33;99790.72;4985016;28;20039;-72
2020/12/27 02:04:47;;;;;;;1.10;0.82;;;;;;;5.24;84.81;99781.72;4970494;28;20049;-71
2020/12/27 02:07:13;;;;;;;1.30;0.60;;;;;;;5.26;84.36;99767.34;4968554;28;20030;-72
2020/12/27 02:09:53;;;;;;;0.45;0.40;;;;;;;5.33;84.01;99751.03;4969189;28;20030;-74
2020/12/27 02:12:19;;;;;;;1.98;0.60;;;;;;;5.32;84.23;99744.84;4954343;28;20043;-74
2020/12/27 02:14:52;;;;;;;0.60;0.50;;;;;;;5.32;84.29;99749.31;4945053;28;20042;-73
2020/12/27 02:17:20;;;;;;;4.10;0.70;;;;;;;5.28;84.37;99738.88;4966886;28;20389;-73
2020/12/27 02:19:57;;;;;;;0.60;0.43;;;;;;;5.26;84.58;99707.97;4947470;28;20027;-73
2020/12/27 02:22:39;;;;;;;0.50;0.50;;;;;;;5.33;84.31;99704.00;4952092;28;20039;-73
2020/12/27 02:25:29;;;;;;;0.70;0.68;;;;;;;5.31;84.95;99702.41;4952858;28;20038;-72
2020/12/27 02:28:06;;;;;;;0.68;0.43;;;;;;;5.32;84.33;99704.94;4951864;28;20038;-73
2020/12/27 02:30:31;;;;;;;0.60;0.50;;;;;;;5.35;83.96;99691.47;4953453;28;20124;-73
2020/12/27 02:32:59;;;;;;;0.98;0.60;;;;;;;5.32;84.13;99681.00;4983736;28;20443;-73
2020/12/27 02:35:26;;;;;;;3.60;0.50;;;;;;;5.40;83.61;99677.91;4953412;28;20041;-73
2020/12/27 02:37:55;;;;;;;0.77;0.55;;;;;;;5.31;84.38;99668.66;4953395;28;20042;-72
2020/12/27 02:40:21;;;;;;;1.50;0.47;;;;;;;5.34;83.86;99636.56;4953384;28;20491;-75
2020/12/27 02:43:19;;;;;;;3.08;1.25;;;;;;;5.34;83.45;99615.25;4982415;28;20365;-72
2020/12/27 02:45:48;;;;;;;0.98;0.60;;;;;;;5.31;83.65;99627.91;4953780;28;20030;-72
2020/12/27 02:48:49;;;;;;;0.60;0.43;;;;;;;5.29;84.07;99626.19;4967838;28;20458;-73
2020/12/27 02:51:21;;;;;;;0.70;0.55;;;;;;;5.31;83.74;99630.56;4968969;28;20047;-73
2020/12/27 02:53:48;;;;;;;1.58;0.40;;;;;;;5.31;83.87;99635.88;4969138;28;20039;-72
2020/12/27 02:56:19;;;;;;;2.63;0.45;;;;;;;5.37;83.57;99611.56;4952502;28;20041;-71
2020/12/27 02:58:45;;;;;;;0.73;0.40;;;;;;;5.32;83.55;99611.81;4953229;28;20031;-72
2020/12/27 03:01:10;;;;;;;0.30;0.30;;;;;;;5.31;83.76;99586.16;4970101;28;20027;-73
2020/12/27 03:03:47;;;;;;;0.95;0.50;;;;;;;5.24;83.41;99567.09;4953362;28;20045;-72
2020/12/27 03:06:19;;;;;;;1.27;0.35;;;;;;;5.28;83.76;99546.47;4946937;28;20079;-74
2020/12/27 03:08:54;;;;;;;0.40;0.40;;;;;;;5.28;83.29;99554.44;4954035;28;20042;-71
2020/12/27 03:11:43;;;;;;;0.43;0.30;;;;;;;5.29;83.09;99534.88;4952421;28;20023;-72
2020/12/27 03:14:11;;;;;;;0.40;0.40;;;;;;;5.25;83.89;99520.91;4970370;28;20070;-73
2020/12/27 03:16:50;;;;;;;0.52;0.40;;;;;;;5.24;82.77;99510.38;4952951;28;20041;-72
2020/12/27 03:19:38;;;;;;;0.85;0.40;;;;;;;5.30;83.17;99496.69;4952092;28;20054;-74
2020/12/27 03:22:26;;;;;;;0.60;0.30;;;;;;;5.28;83.17;99488.78;4968633;28;20039;-72
2020/12/27 03:24:57;;;;;;;0.57;0.45;;;;;;;5.35;83.42;99481.28;4952004;28;20035;-72
2020/12/27 03:27:22;;;;;;;0.63;0.40;;;;;;;5.34;83.94;99468.94;4951450;28;20057;-72
2020/12/27 03:29:48;;;;;;;0.75;0.40;;;;;;;5.38;83.06;99457.13;4952568;28;20395;-72
2020/12/27 03:32:19;;;;;;;0.43;0.32;;;;;;;5.41;83.43;99440.13;4968527;28;20047;-72
2020/12/27 03:34:47;;;;;;;0.75;0.47;;;;;;;5.38;83.67;99430.53;4952582;28;20566;-72
2020/12/27 03:37:12;;;;;;;0.80;0.40;;;;;;;5.31;84.57;99423.88;4951554;28;20034;-72
2020/12/27 03:40:10;;;;;;;0.60;0.38;;;;;;;5.45;83.99;99421.22;4963198;28;20078;-73
2020/12/27 03:43:04;;;;;;;0.77;0.40;;;;;;;5.46;84.22;99395.47;4952306;28;20096;-72
2020/12/27 03:45:30;;;;;;;0.95;0.40;;;;;;;5.50;83.57;99387.16;4953017;28;20513;-72
2020/12/27 03:48:21;;;;;;;2.53;0.40;;;;;;;5.47;84.08;99371.41;4968469;28;20085;-72
2020/12/27 03:50:57;;;;;;;0.45;0.20;;;;;;;5.53;83.40;99364.84;4952728;28;20034;-72
2020/12/27 03:53:24;;;;;;;0.30;0.30;;;;;;;5.44;84.28;99345.00;4952033;28;20054;-73
2020/12/27 03:55:57;;;;;;;;;;;;;;;5.45;83.62;99349.38;4953311;28;20039;-74
2020/12/27 03:58:52;;;;;;;1.23;0.40;;;;;;;5.44;84.04;99329.03;4952353;28;20374;-73
2020/12/27 04:01:37;;;;;;;1.30;0.40;;;;;;;5.52;83.17;99337.38;4966836;28;20126;-72
2020/12/27 04:04:03;;;;;;;0.60;0.38;;;;;;;5.52;83.48;99302.78;4951781;28;20122;-75
2020/12/27 04:06:30;;;;;;;0.80;0.30;;;;;;;5.53;83.48;99301.81;4966589;28;20085;-71
2020/12/27 04:09:09;;;;;;;1.20;0.30;;;;;;;5.52;83.75;99310.75;4938389;28;20037;-72
2020/12/27 04:11:35;;;;;;;0.52;0.45;;;;;;;5.53;84.20;99296.50;4951583;28;20035;-72
2020/12/27 04:14:02;;;;;;;0.45;0.35;;;;;;;5.49;84.03;99286.16;4951378;28;20031;-73
2020/12/27 04:16:28;;;;;;;2.08;0.47;;;;;;;5.56;83.97;99285.63;4950870;28;20049;-71
2020/12/27 04:18:55;;;;;;;0.22;0.22;;;;;;;5.50;84.07;99287.84;4952027;28;20045;-72
2020/12/27 04:21:48;;;;;;;0.68;0.40;;;;;;;5.59;83.82;99257.97;4950210;28;20027;-72
2020/12/27 04:24:26;;;;;;;2.35;0.35;;;;;;;5.57;84.45;99259.88;4950881;28;20135;-70
2020/12/27 04:26:52;;;;;;;0.50;0.30;;;;;;;5.65;83.52;99254.91;4953589;28;20138;-72
2020/12/27 04:29:17;;;;;;;0.40;0.30;;;;;;;5.67;83.61;99240.56;4951418;28;20035;-72
2020/12/27 04:31:52;;;;;;;0.30;0.20;;;;;;;5.67;83.46;99253.84;4984375;28;20073;-74
2020/12/27 04:34:32;;;;;;;0.57;0.40;;;;;;;5.72;84.01;99242.03;4964877;28;20043;-71
2020/12/27 04:36:58;;;;;;;0.77;0.40;;;;;;;5.74;84.07;99240.13;4950767;28;20426;-72
2020/12/27 04:39:29;;;;;;;0.95;0.30;;;;;;;5.73;83.80;99235.75;4951731;28;20118;-72
2020/12/27 04:41:57;;;;;;;0.68;0.30;;;;;;;5.74;84.13;99234.81;4934282;28;20094;-73
2020/12/27 04:44:32;;;;;;;1.27;0.40;;;;;;;5.74;83.95;99229.47;4967779;28;20069;-72
2020/12/27 04:47:02;;;;;;;2.00;0.28;;;;;;;5.67;84.29;99213.06;4938851;28;20038;-71
2020/12/27 04:49:53;;;;;;;0.68;0.40;;;;;;;5.81;83.76;99220.94;4968182;28;20053;-72
2020/12/27 04:52:21;;;;;;;0.80;0.30;;;;;;;5.75;84.49;99209.88;4951794;28;20035;-73
2020/12/27 04:55:00;;;;;;;0.30;0.30;;;;;;;5.74;84.38;99184.22;4957286;28;20081;-72
2020/12/27 04:57:50;;;;;;;1.23;0.20;;;;;;;5.83;83.96;99179.09;4967140;28;20045;-72
2020/12/27 05:00:17;;;;;;;0.47;0.30;;;;;;;5.81;83.77;99156.19;4935077;28;20044;-74
2020/12/27 05:03:01;;;;;;;0.20;0.17;;;;;;;5.78;83.62;99162.59;4968996;28;20077;-72
2020/12/27 05:05:29;;;;;;;1.60;0.20;;;;;;;5.79;84.00;99159.00;4951583;28;20065;-73
2020/12/27 05:07:55;;;;;;;0.25;0.22;;;;;;;5.76;84.17;99147.69;4950550;28;20038;-72
2020/12/27 05:10:32;;;;;;;0.32;0.20;;;;;;;5.80;83.67;99138.56;4949559;28;20034;-72
2020/12/27 05:13:02;;;;;;;0.57;0.30;;;;;;;5.79;83.94;99126.19;4949123;28;20031;-72
2020/12/27 05:15:28;;;;;;;0.40;0.30;;;;;;;5.89;83.80;99095.31;4984986;28;20030;-76
2020/12/27 05:17:57;;;;;;;0.65;0.20;;;;;;;5.86;83.74;99106.16;4954968;28;20050;-72
2020/12/27 05:20:27;;;;;;;0.70;0.10;;;;;;;5.84;84.01;99090.28;4957704;28;20040;-72
2020/12/27 05:23:00;;;;;;;0.20;0.17;;;;;;;5.93;83.29;99092.31;4955293;28;20299;-74
2020/12/27 05:25:56;;;;;;;4.70;0.20;;;;;;;5.90;83.78;99091.69;4953914;28;20034;-73
2020/12/27 05:28:32;;;;;;;0.55;0.22;;;;;;;5.90;84.08;99081.91;4954258;28;20655;-71
2020/12/27 05:31:14;;;;;;;0.30;0.30;;;;;;;5.92;83.67;99090.66;4971579;28;20037;-72
2020/12/27 05:33:57;;;;;;;0.32;0.20;;;;;;;5.96;83.69;99075.28;4971986;28;20049;-72
2020/12/27 05:36:26;;;;;;;0.38;0.20;;;;;;;5.93;83.69;99081.66;4968583;28;20321;-73
2020/12/27 05:38:59;;;;;;;0.20;0.20;;;;;;;6.01;83.90;99062.50;4966850;28;20070;-71
2020/12/27 05:41:41;;;;;;;0.10;0.10;;;;;;;6.04;83.36;99051.63;4982806;28;20042;-73
2020/12/27 05:44:16;;;;;;;0.35;0.22;;;;;;;6.06;82.93;99049.69;4955206;28;20577;-73
2020/12/27 05:46:44;;;;;;;0.20;0.20;;;;;;;6.06;82.87;99052.34;4955073;28;20030;-74
2020/12/27 05:49:11;;;;;;;0.20;0.20;;;;;;;6.07;83.74;99030.09;4949310;28;20054;-73
2020/12/27 05:51:49;;;;;;;0.50;0.20;;;;;;;6.05;83.31;99032.00;4970055;28;20023;-76
2020/12/27 05:54:26;;;;;;;0.10;0.10;;;;;;;6.14;82.59;99025.16;4970372;28;20031;-74
2020/12/27 05:56:57;;;;;;;0.10;0.10;;;;;;;6.14;83.22;99012.69;4953995;28;20035;-73
2020/12/27 05:59:49;;;;;;;0.10;0.10;;;;;;;6.08;83.35;99010.47;4954528;28;20035;-72
2020/12/27 06:02:40;;;;;;;0.30;0.22;;;;;;;6.15;83.33;99001.09;4967580;28;20100;-72
2020/12/27 06:05:14;;;;;;;0.32;0.20;;;;;;;6.13;82.86;98987.03;4938465;28;20081;-72
2020/12/27 06:07:45;;;;;;;0.10;0.10;;;;;;;6.08;84.02;98973.19;4953276;28;20037;-73
2020/12/27 06:10:19;;;;;;;0.10;0.10;;;;;;;6.07;83.50;98964.34;4951785;28;20049;-72
2020/12/27 06:12:57;;;;;;;1.55;0.40;;;;;;;6.08;83.44;98965.22;4954092;28;20031;-73
2020/12/27 06:15:27;;;;;;;0.40;0.20;;;;;;;6.13;83.10;98956.88;4953100;28;20038;-73
2020/12/27 06:18:16;;;;;;;3.95;0.20;;;;;;;6.16;83.55;98944.19;4971342;28;20062;-72
2020/12/27 06:21:16;;;;;;;0.20;0.20;;;;;;;6.13;83.32;98933.75;4951992;28;20043;-73
2020/12/27 06:23:55;;;;;;;0.35;0.20;;;;;;;6.05;83.72;98901.50;4954465;28;20054;-73
2020/12/27 06:26:24;;;;;;;0.10;0.10;;;;;;;6.11;83.57;98911.69;4965590;28;20041;-72
2020/12/27 06:29:10;;;;;;;0.22;0.20;;;;;;;6.16;83.14;98908.72;4952236;28;20023;-75
2020/12/27 06:31:50;;;;;;;0.20;0.20;;;;;;;6.14;83.56;98895.50;4968189;28;20393;-72
2020/12/27 06:34:34;;;;;;;0.60;0.20;;;;;;;6.14;84.03;98890.19;4939819;28;20062;-73
2020/12/27 06:37:07;;;;;;;0.17;0.17;;;;;;;6.12;83.79;98876.13;4964396;28;20487;-72
2020/12/27 06:39:59;;;;;;;1.33;0.20;;;;;;;6.20;83.48;98865.75;4968377;28;20070;-73
2020/12/27 06:42:43;;;;;;;1.25;0.10;;;;;;;6.25;83.04;98868.91;4969998;28;20037;-73
2020/12/27 06:45:28;;;;;;;0.40;0.20;;;;;;;6.25;83.53;98854.72;4953257;28;20078;-72
2020/12/27 06:48:09;;;;;;;0.20;0.20;;;;;;;6.30;83.42;98844.56;4968221;28;20276;-72
2020/12/27 06:50:47;;;;;;;0.30;0.20;;;;;;;6.20;83.50;98840.91;4969062;28;20027;-72
2020/12/27 06:53:46;;;;;;;0.32;0.15;;;;;;;6.24;83.48;98840.56;4953696;28;20030;-73
2020/12/27 06:56:42;;;;;;;1.88;0.20;;;;;;;6.33;83.07;98828.34;4960807;28;20043;-72
2020/12/27 06:59:27;;;;;;;1.40;0.25;;;;;;;6.33;83.53;98826.53;4965818;28;20085;-73
2020/12/27 07:02:06;;;;;;;1.52;0.50;;;;;;;6.33;83.22;98799.91;4953273;28;20093;-73
2020/12/27 07:04:36;;;;;;;0.20;0.20;;;;;;;6.26;83.61;98805.81;4953409;28;20090;-73
2020/12/27 07:07:02;;;;;;;0.30;0.20;;;;;;;6.34;83.46;98796.28;4964610;28;20546;-76
2020/12/27 07:09:27;;;;;;;0.10;0.10;;;;;;;6.33;82.76;98770.59;4936840;28;20117;-70
2020/12/27 07:12:10;;;;;;;0.22;0.10;;;;;;;6.44;82.43;98770.59;4968814;28;20491;-73
2020/12/27 07:14:40;;;;;;;0.98;0.30;;;;;;;6.37;82.39;98766.72;4970569;28;20085;-72
2020/12/27 07:17:07;;;;;;;0.40;0.20;;;;;;;6.36;82.78;98750.84;4969107;28;20039;-73
2020/12/27 07:19:35;;;;;;;0.20;0.20;;;;;;;6.42;82.04;98759.19;4969994;28;20103;-73
2020/12/27 07:22:10;;;;;;;1.05;0.65;;;;;;;6.43;81.90;98755.56;4969075;28;20470;-72
2020/12/27 07:24:37;;;;;;;0.15;0.15;;;;;;;6.41;82.15;98751.34;4951245;28;20414;-72
2020/12/27 07:27:04;;;;;;;1.33;0.30;;;;;;;6.39;82.05;98731.97;4952389;28;20515;-73
2020/12/27 07:29:30;;;;;;;0.20;0.10;;;;;;;6.48;80.73;98726.75;4951931;28;20042;-73
2020/12/27 07:31:59;;;;;;;1.70;0.43;;;;;;;6.48;80.96;98724.06;4969658;28;20475;-72
2020/12/27 07:34:27;;;;;;;8.00;2.58;;;;;;;6.45;81.10;98700.34;4969320;28;20601;-72
2020/12/27 07:37:10;;;;;;;1.38;0.65;;;;;;;6.48;80.47;98700.09;4932709;28;20034;-72
2020/12/27 07:39:55;;;;;;;0.28;0.20;;;;;;;6.52;80.11;98697.19;4968616;28;20037;-72
2020/12/27 07:42:27;;;;;;;1.60;0.60;;;;;;;6.45;80.89;98689.69;4968817;28;20046;-72
2020/12/27 07:44:56;;;;;;;0.60;0.40;;;;;;;6.48;80.67;98693.94;4952967;28;20069;-73
2020/12/27 07:47:22;;;;;;;0.82;0.28;;;;;;;6.46;80.48;98674.56;4969602;28;20114;-73
2020/12/27 07:50:07;;;;;;;0.20;0.20;;;;;;;6.50;80.31;98666.19;4966459;28;20522;-72
2020/12/27 07:52:47;;;;;;;0.10;0.10;;;;;;;6.52;79.92;98651.91;4969460;28;20501;-71
2020/12/27 07:55:23;;;;;;;1.27;0.20;;;;;;;6.52;79.81;98647.41;4968877;28;20026;-73
2020/12/27 07:57:48;;;;;;;0.35;0.20;;;;;;;6.47;81.02;98645.13;4950016;28;20042;-73
2020/12/27 08:00:14;;;;;;;0.88;0.40;;;;;;;6.49;79.80;98627.19;4967980;28;20058;-72
2020/12/27 08:02:44;;;;;;;5.68;0.30;;;;;;;6.54;80.32;98624.16;4966857;28;20042;-72
2020/12/27 08:05:12;;;;;;;0.20;0.20;;;;;;;6.50;80.56;98612.03;4969460;28;20054;-72
2020/12/27 08:07:39;;;;;;;0.57;0.20;;;;;;;6.59;79.70;98599.78;4967079;28;20041;-72
2020/12/27 08:10:25;;;;;;;0.15;0.15;;;;;;;6.65;79.20;98599.28;4969266;28;20039;-72
2020/12/27 08:12:56;;;;;;;0.90;0.25;;;;;;;6.58;79.19;98598.94;4950730;28;20034;-72
2020/12/27 08:15:23;;;;;;;0.28;0.20;;;;;;;6.68;78.57;98599.03;4950434;28;20030;-73
2020/12/27 08:17:59;;;;;;;0.80;0.40;;;;;;;6.70;78.45;98570.44;4968140;28;20038;-72
2020/12/27 08:20:26;;;;;;;0.95;0.40;;;;;;;6.61;79.02;98566.69;4970816;28;20569;-72
2020/12/27 08:22:59;;;;;;;0.65;0.20;;;;;;;6.71;78.18;98580.13;4967805;28;20439;-75
2020/12/27 08:25:25;;;;;;;0.20;0.20;;;;;;;6.64;78.72;98549.63;4950618;28;20570;-72
2020/12/27 08:27:58;;;;;;;0.77;0.30;;;;;;;6.78;77.89;98544.00;4967851;28;20089;-72
2020/12/27 08:30:24;;;;;;;0.20;0.20;;;;;;;6.76;78.13;98540.59;4951145;28;20026;-72
2020/12/27 08:33:17;;;;;;;0.20;0.20;;;;;;;6.82;77.28;98545.41;4950278;28;20039;-72
2020/12/27 08:35:48;;;;;;;1.10;0.85;;;;;;;6.78;77.90;98525.34;4950031;28;20176;-72
2020/12/27 08:38:44;;;;;;;0.20;0.20;;;;;;;6.77;78.45;98510.31;4951448;28;20119;-72
2020/12/27 08:41:16;;;;;;;1.67;0.90;;;;;;;6.80;78.30;98507.38;4968059;23;20055;-73
2020/12/27 08:44:09;;;;;;;1.40;1.15;;;;;;;6.85;78.23;98494.53;4954859;28;20039;-74
2020/12/27 08:46:37;;;;;;;0.63;0.30;;;;;;;6.78;78.63;98480.00;4976911;28;20034;-74
2020/12/27 08:49:21;;;;;;;0.50;0.22;;;;;;;6.83;78.87;98469.81;4974922;28;20047;-73
2020/12/27 08:52:03;;;;;;;2.40;0.55;;;;;;;6.89;79.51;98466.63;4981715;28;20023;-75
2020/12/27 08:54:31;;;;;;;2.40;0.40;;;;;;;6.85;79.79;98466.00;4973204;28;20450;-73
2020/12/27 08:56:57;;;;;;;0.60;0.45;;;;;;;6.70;80.14;98443.34;4971386;28;20077;-74
2020/12/27 08:59:23;;;;;;;2.08;0.40;;;;;;;6.83;79.68;98445.81;4979562;28;20554;-75
2020/12/27 09:01:50;;;;;;;1.05;0.57;;;;;;;6.80;80.94;98440.72;4969333;28;20031;-74
2020/12/27 09:04:21;;;;;;;2.35;0.75;;;;;;;6.78;81.93;98429.34;4984103;28;20089;-73
2020/12/27 09:06:56;;;;;;;1.30;0.75;;;;;;;6.69;83.04;98414.13;4971519;28;20049;-76
2020/12/27 09:09:23;;;;;;;0.95;0.57;;;;;;;6.68;82.85;98437.28;4967151;28;20118;-73
2020/12/27 09:11:49;;;;;;;1.33;0.50;;;;;;;6.64;83.86;98398.53;4977946;28;20030;-74
2020/12/27 09:14:31;;;;;;;1.83;1.65;;;;;;;6.59;84.66;98405.25;4970201;28;20089;-75
2020/12/27 09:17:08;;;;;;;0.55;0.40;;;;;;;6.63;84.41;98369.34;4974715;28;20035;-74
2020/12/27 09:19:35;;;;;;;0.75;0.57;;;;;;;6.66;84.41;98382.44;4969586;28;20034;-74
2020/12/27 09:22:03;;;;;;;0.90;0.50;;;;;;;6.65;84.91;98375.41;4969972;28;20031;-75
2020/12/27 09:24:29;;;;;;;0.57;0.32;;;;;;;6.61;84.21;98368.63;4968077;28;20169;-74
2020/12/27 09:27:06;;;;;;;1.10;0.30;;;;;;;6.64;85.28;98363.03;4974701;28;20498;-75
2020/12/27 09:29:32;;;;;;;2.67;0.40;;;;;;;6.68;84.97;98351.13;4954644;28;20166;-75
2020/12/27 09:32:07;;;;;;;2.30;0.57;;;;;;;6.63;85.03;98345.34;4970626;28;20502;-74
2020/12/27 09:34:33;;;;;;;1.65;0.75;;;;;;;6.58;84.65;98336.91;4952835;28;20190;-72
2020/12/27 09:37:17;;;;;;;2.33;0.70;;;;;;;6.61;84.89;98315.31;4972003;28;20084;-74
2020/12/27 09:39:45;;;;;;;0.25;0.25;;;;;;;6.52;86.36;98316.13;4960187;28;20116;-75
2020/12/27 09:42:39;;;;;;;5.47;1.38;;;;;;;6.54;85.33;98309.72;4969471;28;20509;-75
2020/12/27 09:45:25;;;;;;;0.43;0.40;;;;;;;6.52;84.95;98310.81;4961168;28;20058;-75
2020/12/27 09:47:59;;;;;;;3.10;0.55;;;;;;;6.53;85.16;98291.19;4983752;28;20038;-75
2020/12/27 09:50:33;;;;;;;1.70;0.40;;;;;;;6.56;84.81;98285.56;4970340;28;20027;-75
2020/12/27 09:53:00;;;;;;;2.70;0.45;;;;;;;6.57;84.72;98268.59;4989421;23;20070;-70
2020/12/27 09:55:25;;;;;;;0.80;0.47;;;;;;;6.59;84.65;98272.00;4961783;28;20039;-70
2020/12/27 09:57:51;;;;;;;1.85;0.50;;;;;;;6.58;85.64;98247.16;4955948;28;20030;-70
2020/12/27 10:00:16;;;;;;;1.27;0.40;;;;;;;6.63;84.48;98252.06;4973087;28;20039;-70
2020/12/27 10:02:42;;;;;;;1.55;0.38;;;;;;;6.66;86.02;98243.84;4956591;28;20031;-70
2020/12/27 10:05:08;;;;;;;1.15;0.50;;;;;;;6.64;85.66;98229.78;4950723;28;20031;-70
2020/12/27 10:07:33;;;;;;;0.88;0.30;;;;;;;6.69;84.09;98227.56;4955541;28;20038;-70
2020/12/27 10:09:59;;;;;;;0.40;0.32;;;;;;;6.70;86.04;98223.91;4944342;28;20083;-70
2020/12/27 10:12:24;;;;;;;0.57;0.50;;;;;;;6.63;85.80;98190.78;4955910;28;20035;-70
2020/12/27 10:14:50;;;;;;;1.23;0.50;;;;;;;6.63;86.90;98178.31;4953553;28;20039;-70
2020/12/27 10:17:16;;;;;;;2.17;0.50;;;;;;;6.60;87.66;98178.59;4950250;28;20082;-70
2020/12/27 10:19:41;;;;;;;0.90;0.70;;;;;;;6.57;88.03;98176.19;4947570;28;20107;-70
2020/12/27 10:22:06;;;;;;;0.40;0.40;;;;;;;6.54;87.98;98175.63;4963216;28;20032;-70
2020/12/27 10:24:32;;;;;;;0.70;0.45;;;;;;;6.55;87.09;98158.63;4953084;28;20045;-70
2020/12/27 10:26:59;;;;;;;2.53;0.38;;;;;;;6.57;87.03;98170.00;4932588;28;20030;-71
2020/12/27 10:29:25;;;;;;;0.82;0.30;;;;;;;6.56;87.07;98152.31;4960789;28;20085;-70
2020/12/27 10:31:51;;;;;;;0.20;0.20;;;;;;;6.60;86.29;98137.78;4943879;28;20040;-70
2020/12/27 10:34:18;;;;;;;0.77;0.60;;;;;;;6.61;86.59;98144.75;4956684;28;20433;-70
2020/12/27 10:36:47;;;;;;;0.43;0.38;;;;;;;6.61;85.49;98129.63;4961771;28;20035;-70
2020/12/27 10:39:14;;;;;;;2.15;0.70;;;;;;;6.56;86.58;98115.88;4942854;29;20062;-70
2020/12/27 10:41:43;;;;;;;3.00;0.70;;;;;;;6.59;85.50;98112.09;4937123;28;20119;-71
2020/12/27 10:44:09;;;;;;;1.77;1.00;;;;;;;6.62;85.35;98119.81;4953326;28;20054;-70
2020/12/27 10:46:35;;;;;;;1.13;0.55;;;;;;;6.58;85.33;98107.75;4948646;28;20113;-71
2020/12/27 10:49:01;;;;;;;1.10;0.68;;;;;;;6.64;85.47;98104.53;4952580;28;20151;-70
2020/12/27 10:51:27;;;;;;;0.70;0.50;;;;;;;6.59;86.19;98069.47;4939859;28;20061;-70
2020/12/27 10:53:52;;;;;;;0.93;0.60;;;;;;;6.62;85.04;98094.00;4947011;28;20495;-70
2020/12/27 10:56:18;;;;;;;0.90;0.55;;;;;;;6.69;84.57;98079.16;4946004;28;20034;-72
2020/12/27 10:58:43;;;;;;;0.60;0.50;;;;;;;6.70;83.21;98070.16;4950542;28;20031;-70
2020/12/27 11:01:08;;;;;;;0.85;0.65;;;;;;;6.65;85.35;98048.44;4944353;28;20499;-70
2020/12/27 11:03:34;;;;;;;1.27;0.95;;;;;;;6.61;85.14;98044.34;4943964;28;20033;-70
2020/12/27 11:05:59;;;;;;;0.68;0.43;;;;;;;6.57;84.47;98040.28;4943421;28;20036;-71
2020/12/27 11:08:25;;;;;;;2.55;0.45;;;;;;;6.61;84.17;98038.16;4939062;29;20046;-70
2020/12/27 11:10:50;;;;;;;0.50;0.50;;;;;;;6.56;85.06;98027.09;4933187;28;20127;-71
2020/12/27 11:13:16;;;;;;;3.20;1.75;;;;;;;6.52;87.25;98021.22;4941962;28;20086;-70
2020/12/27 11:15:41;;;;;;;2.70;0.80;;;;;;;6.53;87.48;98003.41;4947260;28;20039;-72
2020/12/27 11:18:06;;;;;;;2.10;1.08;;;;;;;6.52;87.12;98004.38;4943773;28;20036;-71
2020/12/27 11:20:32;;;;;;;3.80;0.93;;;;;;;6.42;87.58;97997.22;4945950;28;20035;-71
2020/12/27 11:22:59;;;;;;;2.38;1.52;;;;;;;6.36;89.23;97987.09;4942008;28;20082;-73
2020/12/27 11:25:24;;;;;;;3.08;0.90;;;;;;;6.41;88.86;97971.56;4949985;28;20031;-71
2020/12/27 11:27:50;;;;;;;4.50;0.73;;;;;;;6.33;90.13;97939.44;4931775;28;20142;-72
2020/12/27 11:30:15;;;;;;;0.57;0.50;;;;;;;6.28;90.29;97946.19;4947295;28;20035;-71
2020/12/27 11:32:41;;;;;;;3.08;1.00;;;;;;;6.24;91.49;97934.09;4912518;28;20043;-72
2020/12/27 11:35:06;;;;;;;3.28;0.68;;;;;;;6.22;91.69;97926.28;4951347;28;20038;-71
2020/12/27 11:37:32;;;;;;;5.32;0.88;;;;;;;6.26;92.30;97925.00;4928819;29;20241;-70
2020/12/27 11:39:58;;;;;;;8.45;2.38;;;;;;;6.19;93.61;97905.25;4947135;28;20114;-71
2020/12/27 11:42:25;;;;;;;2.05;0.80;;;;;;;6.16;93.78;97902.03;4926334;29;20442;-70
2020/12/27 11:44:51;;;;;;;0.73;0.68;;;;;;;6.17;94.26;97883.25;4946588;28;20599;-70
2020/12/27 11:47:16;;;;;;;1.73;0.70;;;;;;;6.18;93.58;97879.59;4947235;28;20042;-70
2020/12/27 11:49:42;;;;;;;4.32;0.93;;;;;;;6.20;95.37;97872.31;4939667;28;20035;-70
2020/12/27 11:52:07;;;;;;;1.38;0.60;;;;;;;6.15;97.00;97863.06;4948600;28;20028;-71
2020/12/27 11:54:32;;;;;;;1.40;0.40;;;;;;;6.16;95.78;97884.22;4946160;28;20019;-70
2020/12/27 11:56:58;;;;;;;0.77;0.38;;;;;;;6.08;95.18;97846.81;4934899;28;20558;-72
2020/12/27 11:59:23;;;;;;;0.52;0.40;;;;;;;6.08;95.33;97854.78;4944054;28;20038;-70
2020/12/27 12:01:49;;;;;;;0.22;0.20;;;;;;;6.04;96.54;97826.78;4947359;28;20086;-70
2020/12/27 12:04:15;;;;;;;1.30;0.40;;;;;;;6.03;98.31;97819.78;4927811;29;20498;-70